Time;durP1;ratioP1;P1;durP2;ratioP2;P2;SDS_P1;SDS_P2;PMS_P1;PMS_P2;Temp;Humidity;BMP_temperature;BMP_pressure;BME280_temperature;BME280_humidity;BME280_pressure;Samples;Min_cycle;Max_cycle;Signal;HPM_P1;HPM_P2
2022/07/16 19:03:48;;;;;;;6.13;2.83;;;;;;;23.86;34.08;99499.16;5124169;27;20116;-69
2022/07/16 19:06:15;;;;;;;5.38;2.92;;;;;;;23.66;34.23;99460.72;5122726;28;20063;-69
2022/07/16 19:08:43;;;;;;;4.47;2.75;;;;;;;23.92;34.10;99501.19;5122585;28;20055;-71
2022/07/16 19:11:10;;;;;;;5.80;3.65;;;;;;;24.02;34.64;99508.34;5122950;28;20117;-70
2022/07/16 19:13:56;;;;;;;4.32;2.65;;;;;;;24.09;34.74;99512.94;5105386;28;20056;-70
2022/07/16 19:16:24;;;;;;;5.07;2.50;;;;;;;24.09;34.25;99512.06;5122711;28;20052;-69
2022/07/16 19:18:53;;;;;;;5.75;2.92;;;;;;;24.18;34.06;99516.50;5123230;28;20040;-69
2022/07/16 19:21:23;;;;;;;11.15;3.00;;;;;;;23.69;35.40;99451.41;5122821;28;20059;-71
2022/07/16 19:23:51;;;;;;;6.57;3.17;;;;;;;24.20;38.65;99534.25;5122710;28;20047;-70
2022/07/16 19:26:21;;;;;;;4.38;2.70;;;;;;;24.15;40.34;99531.22;5123253;28;20044;-71
2022/07/16 19:28:49;;;;;;;3.83;2.58;;;;;;;24.12;39.61;99533.41;5122670;28;20216;-71
2022/07/16 19:31:17;;;;;;;5.43;3.20;;;;;;;24.08;38.82;99537.47;5122914;28;20307;-71
2022/07/16 19:33:46;;;;;;;5.32;2.97;;;;;;;23.96;42.13;99523.34;5122204;28;20062;-71
2022/07/16 19:36:15;;;;;;;3.92;2.67;;;;;;;24.03;41.72;99546.06;5122181;28;20066;-71
2022/07/16 19:38:46;;;;;;;4.55;2.30;;;;;;;23.96;42.00;99547.72;5122962;28;20040;-71
2022/07/16 19:41:14;;;;;;;6.63;3.97;;;;;;;23.91;41.76;99553.63;5122579;28;20227;-71
2022/07/16 19:43:42;;;;;;;4.65;3.28;;;;;;;23.55;42.76;99500.75;5122318;28;20052;-71
2022/07/16 19:46:09;;;;;;;5.25;3.60;;;;;;;23.86;40.81;99555.97;5122242;28;20048;-71
2022/07/16 19:48:38;;;;;;;6.10;3.70;;;;;;;23.53;41.16;99508.19;5104957;28;20063;-72
2022/07/16 19:51:06;;;;;;;5.13;3.88;;;;;;;23.77;40.37;99567.78;5122399;28;20063;-71
2022/07/16 19:53:35;;;;;;;5.18;3.30;;;;;;;23.74;41.02;99567.28;5122603;28;20058;-71
2022/07/16 19:58:49;;;;;;;7.30;2.95;;;;;;;23.61;40.72;99581.25;5122544;28;20049;-71
2022/07/16 20:01:17;;;;;;;3.90;2.60;;;;;;;23.62;40.56;99600.03;5121745;28;20063;-69
2022/07/16 20:03:45;;;;;;;4.00;3.03;;;;;;;23.42;39.58;99571.53;5083840;28;20051;-72
2022/07/16 20:06:12;;;;;;;6.03;2.70;;;;;;;23.46;40.29;99593.69;5083488;28;20044;-71
2022/07/16 20:08:41;;;;;;;4.85;2.60;;;;;;;23.50;39.93;99605.88;5101329;28;20117;-71
2022/07/16 20:11:08;;;;;;;6.80;3.95;;;;;;;23.31;40.07;99583.47;5101739;28;20064;-70
2022/07/16 20:13:36;;;;;;;5.47;3.40;;;;;;;23.42;40.34;99608.56;5096334;28;20048;-71
2022/07/16 20:16:05;;;;;;;3.63;2.50;;;;;;;23.06;40.55;99565.38;5087676;28;20267;-71
2022/07/16 20:18:32;;;;;;;5.72;4.10;;;;;;;23.28;40.01;99610.84;5087519;28;20381;-71
2022/07/16 20:21:00;;;;;;;6.03;4.32;;;;;;;22.38;39.59;99484.13;5087562;28;20065;-71
2022/07/16 20:23:30;;;;;;;5.15;3.75;;;;;;;23.18;39.41;99620.88;5088038;28;20300;-71
2022/07/16 20:25:59;;;;;;;9.20;3.60;;;;;;;22.94;40.31;99583.72;5087643;28;20056;-71
2022/07/16 20:28:26;;;;;;;6.43;3.60;;;;;;;23.14;39.16;99629.47;5070517;28;20052;-70
2022/07/16 20:30:53;;;;;;;3.85;2.72;;;;;;;22.67;40.45;99565.78;5087193;28;20061;-70
2022/07/16 20:33:21;;;;;;;4.72;2.58;;;;;;;23.07;40.10;99642.75;5070078;28;20234;-70
2022/07/16 20:35:48;;;;;;;4.22;2.55;;;;;;;23.01;40.11;99635.28;5087194;28;20052;-71
2022/07/16 20:38:16;;;;;;;4.30;2.78;;;;;;;22.99;40.66;99648.09;5087185;28;20056;-71
2022/07/16 20:40:43;;;;;;;6.45;2.72;;;;;;;23.01;40.70;99652.34;5069741;28;20357;-70
2022/07/16 20:43:13;;;;;;;4.90;3.05;;;;;;;22.99;40.93;99658.91;5069415;28;20044;-70
2022/07/16 20:45:40;;;;;;;4.00;3.00;;;;;;;22.95;41.58;99660.25;5086888;28;20374;-70
2022/07/16 20:48:07;;;;;;;5.30;3.00;;;;;;;22.66;41.38;99618.13;5087133;28;20036;-71
2022/07/16 20:50:38;;;;;;;5.60;2.90;;;;;;;21.98;40.75;99517.84;5087231;28;20288;-71
2022/07/16 20:53:05;;;;;;;4.18;2.75;;;;;;;22.86;40.71;99672.84;5086754;28;20052;-71
2022/07/16 20:55:35;;;;;;;4.50;3.20;;;;;;;22.80;40.28;99667.19;5086392;28;20056;-71
2022/07/16 20:58:03;;;;;;;8.27;2.83;;;;;;;22.75;40.01;99667.66;5084560;28;20142;-71
2022/07/16 21:00:33;;;;;;;8.45;4.32;;;;;;;22.34;40.27;99625.84;5082117;28;20075;-71
2022/07/16 21:03:01;;;;;;;6.28;3.13;;;;;;;22.63;40.13;99674.31;5078615;28;20052;-71
2022/07/16 21:05:29;;;;;;;5.60;3.53;;;;;;;22.60;39.60;99677.31;5103556;28;20040;-70
2022/07/16 21:07:56;;;;;;;7.93;2.97;;;;;;;22.56;40.80;99684.88;5104540;28;20087;-70
2022/07/16 21:10:24;;;;;;;6.72;3.40;;;;;;;22.41;40.69;99659.34;5104746;28;20052;-70
2022/07/16 21:12:51;;;;;;;6.05;3.40;;;;;;;22.55;40.02;99683.16;5085575;28;20040;-70
2022/07/16 21:15:19;;;;;;;6.60;3.97;;;;;;;22.41;40.39;99668.31;5104035;28;20246;-70
2022/07/16 21:17:48;;;;;;;4.03;3.08;;;;;;;22.57;40.92;99685.72;5104904;28;20036;-71
2022/07/16 21:20:16;;;;;;;4.43;3.70;;;;;;;22.52;40.64;99702.34;5104720;28;20064;-70
2022/07/16 21:22:44;;;;;;;7.28;3.58;;;;;;;22.27;41.53;99667.94;5105075;28;20115;-71
2022/07/16 21:25:11;;;;;;;5.68;4.05;;;;;;;22.51;41.85;99705.19;5104598;28;20054;-71
2022/07/16 21:27:39;;;;;;;5.30;3.60;;;;;;;22.53;41.42;99711.31;5105678;28;20071;-71
2022/07/16 21:30:08;;;;;;;4.63;3.35;;;;;;;22.26;41.13;99677.91;5088303;28;20044;-70
2022/07/16 21:32:35;;;;;;;5.22;3.28;;;;;;;22.36;41.01;99691.34;5088335;28;20098;-71
2022/07/16 21:35:05;;;;;;;6.38;3.45;;;;;;;22.43;41.13;99716.75;5106285;28;20054;-71
2022/07/16 21:37:33;;;;;;;4.63;3.15;;;;;;;22.44;41.88;99718.47;5107184;28;20047;-71
2022/07/16 21:40:00;;;;;;;9.98;7.40;;;;;;;22.37;42.23;99711.94;5106251;28;20325;-71
2022/07/16 21:42:28;;;;;;;20.85;15.30;;;;;;;22.38;41.29;99728.00;5088815;28;20051;-72
2022/07/16 21:44:55;;;;;;;26.13;19.50;;;;;;;22.08;41.57;99679.72;5106357;28;20052;-72
2022/07/16 21:47:22;;;;;;;34.33;25.15;;;;;;;22.37;41.90;99726.28;5106237;28;20059;-71
2022/07/16 21:49:50;;;;;;;37.72;25.92;;;;;;;22.27;42.14;99732.75;5106222;28;20051;-71
2022/07/16 21:52:19;;;;;;;41.40;24.63;;;;;;;22.32;41.21;99749.34;5106381;28;20068;-71
2022/07/16 21:54:46;;;;;;;31.90;17.88;;;;;;;22.31;41.63;99753.91;5106602;28;20040;-71
2022/07/16 21:57:13;;;;;;;25.02;14.80;;;;;;;22.25;41.47;99759.88;5071503;28;20153;-70
2022/07/16 21:59:40;;;;;;;22.75;13.38;;;;;;;22.28;41.38;99762.28;5105676;28;20254;-71
2022/07/16 22:02:10;;;;;;;41.60;24.60;;;;;;;22.30;41.88;99764.84;5088216;28;20055;-71
2022/07/16 22:04:38;;;;;;;29.10;17.45;;;;;;;22.09;41.67;99748.88;5105962;28;20111;-70
2022/07/16 22:07:06;;;;;;;24.05;13.15;;;;;;;22.20;42.09;99766.75;5106503;28;20052;-70
2022/07/16 22:09:35;;;;;;;12.60;8.10;;;;;;;22.16;41.25;99787.78;5106018;28;20058;-71
2022/07/16 22:12:02;;;;;;;9.27;5.65;;;;;;;22.04;41.44;99770.91;5105978;28;20063;-71
2022/07/16 22:14:30;;;;;;;6.38;4.38;;;;;;;22.18;41.80;99787.63;5088468;28;20097;-70
2022/07/16 22:16:57;;;;;;;5.55;4.22;;;;;;;22.12;41.03;99796.31;5105605;28;20073;-70
2022/07/16 22:22:09;;;;;;;7.85;4.70;;;;;;;22.06;42.19;99809.41;5105814;28;20089;-69
2022/07/16 22:24:38;;;;;;;6.40;4.80;;;;;;;22.09;41.87;99816.34;5105580;28;20064;-69
2022/07/16 22:27:05;;;;;;;5.28;4.07;;;;;;;22.07;42.08;99815.66;5105691;28;20086;-69
2022/07/16 22:29:33;;;;;;;4.47;3.30;;;;;;;21.96;42.34;99822.06;5105514;28;20059;-70
2022/07/16 22:32:00;;;;;;;4.80;3.45;;;;;;;21.98;42.39;99821.94;5105740;28;20056;-70
2022/07/16 22:34:27;;;;;;;4.93;3.15;;;;;;;21.97;42.19;99836.41;5105407;28;20085;-69
2022/07/16 22:36:54;;;;;;;4.75;3.10;;;;;;;21.94;42.35;99839.41;5105262;28;20055;-69
2022/07/16 22:39:21;;;;;;;5.07;2.85;;;;;;;21.89;41.69;99844.41;5105496;28;20193;-70
2022/07/16 22:41:50;;;;;;;4.15;2.63;;;;;;;21.90;42.06;99857.75;5105780;28;20052;-69
2022/07/16 22:44:18;;;;;;;5.15;3.53;;;;;;;21.53;42.05;99802.81;5105410;28;20078;-69
2022/07/16 22:46:46;;;;;;;8.65;5.75;;;;;;;21.84;41.97;99863.72;5105420;28;20052;-69
2022/07/16 22:49:13;;;;;;;8.10;5.75;;;;;;;21.55;42.36;99827.78;5105679;28;20149;-68
2022/07/16 22:51:43;;;;;;;7.28;4.03;;;;;;;21.68;42.22;99844.53;5105744;28;20105;-69
2022/07/16 22:54:10;;;;;;;5.03;3.53;;;;;;;20.54;42.20;99667.34;5106122;28;20093;-69
2022/07/16 22:56:41;;;;;;;5.18;3.40;;;;;;;21.01;42.02;99759.09;5105948;28;20040;-69
2022/07/16 22:59:10;;;;;;;4.40;3.38;;;;;;;21.77;41.79;99886.84;5088005;28;20047;-69
2022/07/16 23:01:37;;;;;;;4.32;2.95;;;;;;;20.93;42.41;99749.03;5105152;28;20056;-69
2022/07/16 23:04:05;;;;;;;7.10;3.42;;;;;;;21.77;42.16;99900.31;5105829;28;20229;-69
2022/07/16 23:06:40;;;;;;;5.05;2.90;;;;;;;20.43;41.98;99686.31;5087915;28;20126;-69
2022/07/16 23:09:07;;;;;;;5.43;2.83;;;;;;;21.22;42.44;99819.16;5088065;28;20048;-69
2022/07/16 23:11:34;;;;;;;4.68;2.90;;;;;;;21.47;42.72;99860.88;5105719;28;20246;-69
2022/07/16 23:14:02;;;;;;;6.18;2.78;;;;;;;21.70;42.58;99908.13;5087802;28;20299;-69
2022/07/16 23:16:30;;;;;;;3.38;2.28;;;;;;;21.56;41.95;99886.13;5104987;28;20105;-69
2022/07/16 23:18:58;;;;;;;3.45;2.40;;;;;;;21.67;41.81;99910.25;5088068;28;20091;-69
2022/07/16 23:21:26;;;;;;;5.82;2.53;;;;;;;21.32;42.18;99852.34;5105475;28;20056;-69
2022/07/16 23:23:54;;;;;;;4.32;2.47;;;;;;;20.16;42.07;99663.56;5087339;28;20055;-69
2022/07/16 23:26:21;;;;;;;3.88;2.40;;;;;;;21.58;41.90;99906.56;5104945;28;20055;-70
2022/07/16 23:28:49;;;;;;;3.72;2.78;;;;;;;21.57;41.92;99904.88;5087409;28;20112;-70
2022/07/16 23:31:17;;;;;;;4.22;2.35;;;;;;;21.51;42.50;99907.28;5103649;28;20059;-68
2022/07/16 23:33:45;;;;;;;5.93;3.00;;;;;;;21.49;42.22;99907.41;5105660;28;20036;-69
2022/07/16 23:36:14;;;;;;;6.85;2.65;;;;;;;21.12;42.23;99847.94;5087759;28;20044;-70
2022/07/16 23:38:41;;;;;;;4.97;2.83;;;;;;;20.91;41.93;99817.50;5105313;28;20303;-70
2022/07/16 23:41:15;;;;;;;3.10;1.92;;;;;;;20.56;42.09;99770.38;5088673;28;20108;-70
2022/07/16 23:43:42;;;;;;;3.10;2.30;;;;;;;21.19;42.10;99869.78;5104879;28;20060;-71
2022/07/16 23:46:10;;;;;;;4.07;2.50;;;;;;;21.29;41.65;99903.00;5105302;28;20060;-70
2022/07/16 23:48:41;;;;;;;4.22;2.95;;;;;;;20.34;42.06;99736.47;5087831;28;20311;-69
2022/07/16 23:51:10;;;;;;;4.18;3.53;;;;;;;20.87;42.08;99824.16;5108287;28;20056;-69
2022/07/16 23:53:40;;;;;;;7.53;4.72;;;;;;;20.87;42.03;99837.63;5091359;28;20134;-69
2022/07/16 23:56:10;;;;;;;5.10;3.47;;;;;;;21.37;42.22;99920.19;5108650;28;20189;-69
2022/07/16 23:58:38;;;;;;;4.35;2.53;;;;;;;20.99;42.37;99860.78;5091024;28;20048;-69
